createdAt,value
2023-04-02T00:01:08.938Z,27.27
2023-04-02T00:03:55.089Z,27.48
2023-04-02T00:06:41.526Z,27.36
2023-04-02T00:09:17.071Z,27.41
2023-04-02T00:11:52.328Z,27.19
2023-04-02T00:14:29.368Z,27.47
2023-04-02T00:17:01.035Z,27.27
2023-04-02T00:19:52.049Z,27.21
2023-04-02T00:22:23.871Z,27.21
2023-04-02T00:24:58.564Z,27.15
2023-04-02T00:27:28.290Z,27.38
2023-04-02T00:30:01.575Z,27.30
2023-04-02T00:32:43.166Z,27.16
2023-04-02T00:35:20.417Z,27.16
2023-04-02T00:37:52.027Z,27.11
2023-04-02T00:40:44.632Z,27.05
2023-04-02T00:43:18.292Z,27.16
2023-04-02T00:45:55.332Z,27.15
2023-04-02T00:48:43.001Z,27.07
2023-04-02T00:51:43.316Z,27.12
2023-04-02T00:54:17.940Z,27.18
2023-04-02T00:56:52.351Z,27.06
2023-04-02T00:59:30.733Z,27.14
2023-04-02T01:02:23.983Z,27.38
2023-04-02T01:05:07.141Z,27.17
2023-04-02T01:08:01.818Z,27.20
2023-04-02T01:11:02.036Z,27.06
2023-04-02T01:13:55.147Z,27.23
2023-04-02T01:16:34.488Z,27.07
2023-04-02T01:19:31.060Z,27.15
2023-04-02T01:22:36.646Z,27.09
2023-04-02T01:25:05.926Z,27.07
2023-04-02T01:27:43.460Z,26.97
2023-04-02T01:30:14.420Z,27.20
2023-04-02T01:32:45.420Z,26.98
2023-04-02T01:35:18.484Z,27.11
2023-04-02T01:38:12.008Z,27.11
2023-04-02T01:40:55.067Z,26.71
2023-04-02T01:43:48.801Z,26.86
2023-04-02T01:46:36.561Z,27.02
2023-04-02T01:49:18.302Z,26.97
2023-04-02T01:51:54.591Z,26.98
2023-04-02T01:54:25.798Z,26.82
2023-04-02T01:56:57.972Z,26.76
2023-04-02T01:59:31.231Z,26.99
2023-04-02T02:02:19.246Z,26.79
2023-04-02T02:04:48.983Z,26.77
2023-04-02T02:07:20.876Z,26.89
2023-04-02T02:09:51.879Z,27.02
2023-04-02T02:12:21.627Z,26.94
2023-04-02T02:14:57.566Z,26.89
2023-04-02T02:17:35.194Z,26.77
2023-04-02T02:20:10.765Z,26.76
2023-04-02T02:22:48.404Z,26.85
2023-04-02T02:25:24.051Z,26.85
2023-04-02T02:27:53.649Z,26.69
2023-04-02T02:30:36.795Z,26.75
2023-04-02T02:33:20.233Z,26.60
2023-04-02T02:35:59.118Z,26.74
2023-04-02T02:38:45.157Z,26.88
2023-04-02T02:41:30.618Z,26.77
2023-04-02T02:44:03.319Z,26.59
2023-04-02T02:46:34.812Z,26.71
2023-04-02T02:49:06.187Z,26.55
2023-04-02T02:52:12.042Z,26.57
2023-04-02T02:54:49.121Z,26.70
2023-04-02T02:57:28.030Z,26.51
2023-04-02T03:00:01.871Z,26.76
2023-04-02T03:02:32.730Z,26.69
2023-04-02T03:05:07.210Z,26.46
2023-04-02T03:07:38.830Z,26.63
2023-04-02T03:10:48.425Z,26.42
2023-04-02T03:13:26.466Z,26.33
2023-04-02T03:16:14.386Z,26.40
2023-04-02T03:18:53.868Z,26.19
2023-04-02T03:21:44.715Z,26.15
2023-04-02T03:24:29.629Z,26.36
2023-04-02T03:27:07.300Z,26.20
2023-04-02T03:29:51.523Z,26.22
2023-04-02T03:32:32.930Z,26.41
2023-04-02T03:35:24.507Z,26.24
2023-04-02T03:38:01.416Z,26.31
2023-04-02T03:40:37.376Z,26.22
2023-04-02T03:43:29.721Z,26.26
2023-04-02T03:46:30.297Z,25.88
2023-04-02T03:49:27.493Z,26.17
2023-04-02T03:52:09.287Z,25.89
2023-04-02T03:54:39.517Z,25.82
2023-04-02T03:57:20.832Z,25.94
2023-04-02T04:00:06.677Z,25.97
2023-04-02T04:02:59.038Z,25.95
2023-04-02T04:05:32.893Z,26.03
2023-04-02T04:08:10.010Z,26.00
2023-04-02T04:10:39.704Z,25.91
2023-04-02T04:13:15.860Z,25.70
2023-04-02T04:15:48.431Z,25.92
2023-04-02T04:18:42.092Z,25.78
2023-04-02T04:21:39.358Z,25.78
2023-04-02T04:24:38.081Z,25.60
2023-04-02T04:27:37.881Z,25.75
2023-04-02T04:30:49.171Z,25.82
2023-04-02T04:33:26.376Z,25.76
2023-04-02T04:36:01.329Z,25.65
2023-04-02T04:38:57.108Z,25.62
2023-04-02T04:41:30.524Z,25.61
2023-04-02T04:44:07.792Z,25.58
2023-04-02T04:46:52.131Z,25.50
2023-04-02T04:49:46.634Z,25.69
2023-04-02T04:52:18.700Z,25.50
2023-04-02T04:54:54.557Z,25.70
2023-04-02T04:57:33.239Z,25.46
2023-04-02T05:00:45.080Z,25.38
2023-04-02T05:04:11.281Z,25.33
2023-04-02T05:06:58.745Z,25.38
2023-04-02T05:09:42.364Z,25.44
2023-04-02T05:12:26.782Z,25.58
2023-04-02T05:15:29.594Z,25.31
2023-04-02T05:18:17.405Z,25.59
2023-04-02T05:21:02.560Z,25.51
2023-04-02T05:23:37.744Z,25.63
2023-04-02T05:26:13.346Z,25.44
2023-04-02T05:28:48.258Z,25.43
2023-04-02T05:31:44.717Z,25.47
2023-04-02T05:34:18.226Z,25.31
2023-04-02T05:36:48.776Z,25.34
2023-04-02T05:39:28.449Z,25.38
2023-04-02T05:42:22.919Z,25.25
2023-04-02T05:45:07.404Z,25.14
2023-04-02T05:47:44.846Z,25.10
2023-04-02T05:50:32.202Z,25.12
2023-04-02T05:53:18.904Z,25.08
2023-04-02T05:56:13.009Z,25.25
2023-04-02T05:58:48.739Z,25.12
2023-04-02T06:01:24.532Z,25.18
2023-04-02T06:03:56.618Z,25.14
2023-04-02T06:06:47.557Z,25.12
2023-04-02T06:09:39.483Z,25.01
2023-04-02T06:12:30.306Z,25.13
2023-04-02T06:15:00.321Z,25.06
2023-04-02T06:17:33.139Z,25.09
2023-04-02T06:20:04.777Z,24.88
2023-04-02T06:22:39.343Z,24.86
2023-04-02T06:25:23.164Z,24.96
2023-04-02T06:27:54.209Z,25.11
2023-04-02T06:30:37.823Z,24.84
2023-04-02T06:33:11.038Z,24.98
2023-04-02T06:35:44.661Z,24.82
2023-04-02T06:38:27.097Z,24.96
2023-04-02T06:41:02.527Z,24.63
2023-04-02T06:43:40.486Z,24.70
2023-04-02T06:46:24.292Z,24.66
2023-04-02T06:48:57.734Z,24.68
2023-04-02T06:51:28.933Z,24.74
2023-04-02T06:54:01.304Z,24.54
2023-04-02T06:56:46.020Z,24.50
2023-04-02T06:59:20.107Z,24.42
2023-04-02T07:01:55.961Z,24.71
2023-04-02T07:04:26.050Z,24.56
2023-04-02T07:06:57.268Z,24.34
2023-04-02T07:09:27.485Z,24.43
2023-04-02T07:12:00.124Z,24.45
2023-04-02T07:14:29.863Z,24.37
2023-04-02T07:17:05.913Z,24.18
2023-04-02T07:19:35.777Z,24.42
2023-04-02T07:22:07.438Z,24.24
2023-04-02T07:24:39.795Z,24.06
2023-04-02T07:27:12.216Z,24.33
2023-04-02T07:29:44.401Z,24.50
2023-04-02T07:32:17.210Z,24.29
2023-04-02T07:34:47.591Z,24.32
2023-04-02T07:37:17.325Z,24.42
2023-04-02T07:39:47.100Z,24.37
2023-04-02T07:42:16.901Z,24.21
2023-04-02T07:44:46.476Z,24.35
2023-04-02T07:47:19.447Z,24.19
2023-04-02T07:49:59.800Z,24.07
2023-04-02T07:52:35.069Z,24.47
2023-04-02T07:55:05.617Z,24.48
2023-04-02T07:57:46.386Z,24.17
2023-04-02T08:00:20.718Z,24.52
2023-04-02T08:02:55.959Z,24.31
2023-04-02T08:05:25.028Z,24.50
2023-04-02T08:07:58.832Z,24.43
2023-04-02T08:10:28.658Z,24.33
2023-04-02T08:13:00.994Z,24.28
2023-04-02T08:15:33.750Z,24.55
2023-04-02T08:18:03.808Z,24.38
2023-04-02T08:20:33.709Z,24.47
2023-04-02T08:23:06.015Z,24.60
2023-04-02T08:25:36.073Z,24.48
2023-04-02T08:28:05.992Z,24.34
2023-04-02T08:30:37.045Z,24.49
2023-04-02T08:33:08.120Z,24.34
2023-04-02T08:35:41.155Z,24.44
2023-04-02T08:38:11.622Z,24.48
2023-04-02T08:40:47.549Z,24.35
2023-04-02T08:43:35.181Z,24.38
2023-04-02T08:46:04.836Z,24.42
2023-04-02T08:48:42.479Z,24.35
2023-04-02T08:51:36.836Z,24.44
2023-04-02T08:54:21.592Z,24.18
2023-04-02T08:57:34.948Z,24.22
2023-04-02T09:00:29.456Z,24.26
2023-04-02T09:03:06.564Z,24.36
2023-04-02T09:05:39.425Z,24.36
2023-04-02T09:08:28.856Z,24.30
2023-04-02T09:11:05.158Z,24.25
2023-04-02T09:13:39.073Z,24.37
2023-04-02T09:16:19.022Z,24.52
2023-04-02T09:18:52.721Z,24.60
2023-04-02T09:21:36.106Z,24.44
2023-04-02T09:24:08.919Z,24.34
2023-04-02T09:26:47.474Z,24.42
2023-04-02T09:29:36.918Z,24.54
2023-04-02T09:32:39.969Z,24.77
2023-04-02T09:35:24.709Z,25.08
2023-04-02T09:38:23.062Z,24.93
2023-04-02T09:41:11.340Z,25.01
2023-04-02T09:43:46.792Z,25.23
2023-04-02T09:46:20.023Z,25.24
2023-04-02T09:49:06.994Z,25.21
2023-04-02T09:51:38.047Z,25.35
2023-04-02T09:54:15.859Z,25.37
2023-04-02T09:57:05.000Z,25.38
2023-04-02T09:59:43.938Z,25.39
2023-04-02T10:02:31.456Z,25.35
2023-04-02T10:05:06.209Z,25.39
2023-04-02T10:07:39.986Z,25.28
2023-04-02T10:10:32.820Z,25.57
2023-04-02T10:13:10.388Z,25.63
2023-04-02T10:16:00.579Z,25.61
2023-04-02T10:18:36.171Z,25.49
2023-04-02T10:21:07.927Z,25.72
2023-04-02T10:23:37.848Z,25.51
2023-04-02T10:26:25.862Z,25.70
2023-04-02T10:29:10.085Z,25.65
2023-04-02T10:32:01.013Z,25.59
2023-04-02T10:35:05.098Z,25.57
2023-04-02T10:38:02.758Z,25.71
2023-04-02T10:41:06.649Z,25.95
2023-04-02T10:43:54.404Z,25.78
2023-04-02T10:46:56.898Z,25.99
2023-04-02T10:49:44.232Z,26.13
2023-04-02T10:52:36.674Z,26.14
2023-04-02T10:55:25.111Z,26.05
2023-04-02T10:57:56.304Z,26.03
2023-04-02T11:00:30.974Z,26.03
2023-04-02T11:03:10.935Z,26.08
2023-04-02T11:05:56.936Z,26.14
2023-04-02T11:08:35.890Z,26.16
2023-04-02T11:11:16.778Z,26.17
2023-04-02T11:13:52.228Z,26.04
2023-04-02T11:16:25.200Z,26.24
2023-04-02T11:19:22.064Z,26.38
2023-04-02T11:21:59.340Z,26.17
2023-04-02T11:24:38.391Z,26.31
2023-04-02T11:27:25.995Z,26.28
2023-04-02T11:30:07.020Z,26.45
2023-04-02T11:32:40.790Z,26.36
2023-04-02T11:35:35.205Z,26.52
2023-04-02T11:38:14.373Z,26.48
2023-04-02T11:40:46.540Z,26.60
2023-04-02T11:43:39.280Z,26.37
2023-04-02T11:46:28.931Z,26.54
2023-04-02T11:49:44.063Z,26.61
2023-04-02T11:52:25.212Z,26.53
2023-04-02T11:55:17.397Z,26.61
2023-04-02T11:58:13.046Z,26.67
2023-04-02T12:01:20.436Z,26.71
2023-04-02T12:04:28.170Z,26.44
2023-04-02T12:07:21.555Z,26.53
2023-04-02T12:09:59.531Z,26.49
2023-04-02T12:12:39.449Z,26.56
2023-04-02T12:15:28.902Z,26.57
2023-04-02T12:18:17.783Z,26.59
2023-04-02T12:20:58.365Z,26.76
2023-04-02T12:23:39.974Z,26.69
2023-04-02T12:26:47.846Z,26.63
2023-04-02T12:29:30.979Z,26.85
2023-04-02T12:32:01.415Z,26.93
2023-04-02T12:34:32.281Z,26.77
2023-04-02T12:37:07.340Z,26.80
2023-04-02T12:39:37.590Z,26.85
2023-04-02T12:42:07.777Z,26.72
2023-04-02T12:44:37.453Z,26.94
2023-04-02T12:47:07.706Z,26.91
2023-04-02T12:49:43.717Z,26.95
2023-04-02T12:52:16.047Z,26.85
2023-04-02T12:54:57.119Z,26.88
2023-04-02T12:57:32.448Z,27.02
2023-04-02T13:00:19.270Z,27.14
2023-04-02T13:03:10.579Z,26.97
2023-04-02T13:05:59.557Z,26.96
2023-04-02T13:08:37.537Z,27.06
2023-04-02T13:11:07.850Z,27.01
2023-04-02T13:13:46.091Z,26.98
2023-04-02T13:16:21.494Z,27.00
2023-04-02T13:18:52.220Z,27.00
2023-04-02T13:21:26.648Z,26.98
2023-04-02T13:24:00.008Z,27.21
2023-04-02T13:26:33.003Z,27.00
2023-04-02T13:29:24.896Z,27.05
2023-04-02T13:31:58.839Z,27.19
2023-04-02T13:34:28.747Z,27.12
2023-04-02T13:37:01.905Z,27.03
2023-04-02T13:39:32.032Z,27.17
2023-04-02T13:42:08.036Z,27.16
2023-04-02T13:44:39.184Z,27.14
2023-04-02T13:47:08.994Z,27.08
2023-04-02T13:49:38.785Z,27.07
2023-04-02T13:52:12.220Z,27.24
2023-04-02T13:54:51.275Z,27.14
2023-04-02T13:57:21.091Z,27.16
2023-04-02T13:59:53.370Z,27.08
2023-04-02T14:02:28.968Z,27.27
2023-04-02T14:05:07.973Z,27.21
2023-04-02T14:08:03.509Z,27.29
2023-04-02T14:10:42.437Z,27.11
2023-04-02T14:13:32.806Z,27.15
2023-04-02T14:16:32.900Z,27.19
2023-04-02T14:19:36.292Z,27.16
2023-04-02T14:22:18.701Z,27.37
2023-04-02T14:24:57.114Z,27.17
2023-04-02T14:27:50.779Z,27.26
2023-04-02T14:30:24.903Z,27.38
2023-04-02T14:33:06.578Z,27.30
2023-04-02T14:35:40.940Z,27.32
2023-04-02T14:38:29.622Z,27.32
2023-04-02T14:41:07.723Z,27.38
2023-04-02T14:43:47.964Z,27.31
2023-04-02T14:46:18.193Z,27.44
2023-04-02T14:49:21.043Z,27.42
2023-04-02T14:52:04.812Z,27.42
2023-04-02T14:54:38.918Z,27.40
2023-04-02T14:57:25.698Z,27.49
2023-04-02T14:59:58.135Z,27.30
2023-04-02T15:02:52.421Z,27.49
2023-04-02T15:05:45.864Z,27.58
2023-04-02T15:08:39.664Z,27.39
2023-04-02T15:11:47.574Z,27.44
2023-04-02T15:14:44.922Z,27.44
2023-04-02T15:17:15.068Z,27.47
2023-04-02T15:19:45.437Z,27.47
2023-04-02T15:23:00.311Z,27.64
2023-04-02T15:26:19.226Z,27.47
2023-04-02T15:29:33.153Z,27.42
2023-04-02T15:32:28.256Z,27.45
2023-04-02T15:35:26.258Z,27.62
2023-04-02T15:38:17.034Z,27.61
2023-04-02T15:40:57.313Z,27.54
2023-04-02T15:43:47.610Z,27.49
2023-04-02T15:46:32.504Z,27.61
2023-04-02T15:49:01.573Z,27.73
2023-04-02T15:51:52.508Z,27.69
2023-04-02T15:54:28.472Z,27.54
2023-04-02T15:57:18.538Z,27.72
2023-04-02T16:00:03.806Z,27.70
2023-04-02T16:02:42.289Z,27.53
2023-04-02T16:05:48.472Z,27.63
2023-04-02T16:08:23.470Z,27.78
2023-04-02T16:10:55.743Z,27.60
2023-04-02T16:13:37.368Z,27.64
2023-04-02T16:16:22.631Z,27.57
2023-04-02T16:19:28.600Z,27.57
2023-04-02T16:22:17.218Z,27.67
2023-04-02T16:24:48.335Z,27.58
2023-04-02T16:27:29.587Z,27.69
2023-04-02T16:30:17.768Z,27.87
2023-04-02T16:32:55.968Z,27.66
2023-04-02T16:38:30.982Z,27.83
2023-04-02T16:41:44.369Z,27.47
2023-04-02T16:44:35.244Z,27.86
2023-04-02T16:47:41.592Z,27.89
2023-04-02T16:50:32.688Z,27.69
2023-04-02T16:53:47.808Z,27.73
2023-04-02T16:57:00.603Z,27.78
2023-04-02T16:59:45.574Z,27.73
2023-04-02T17:02:23.832Z,27.76
2023-04-02T17:05:24.860Z,27.82
2023-04-02T17:08:15.209Z,27.84
2023-04-02T17:11:04.421Z,27.96
2023-04-02T17:13:47.619Z,27.87
2023-04-02T17:16:24.327Z,27.87
2023-04-02T17:19:00.625Z,27.81
2023-04-02T17:21:34.440Z,27.95
2023-04-02T17:24:18.855Z,27.81
2023-04-02T17:26:53.953Z,27.97
2023-04-02T17:29:37.610Z,27.87
2023-04-02T17:32:20.023Z,28.09
2023-04-02T17:34:52.909Z,27.86
2023-04-02T17:37:41.158Z,27.70
2023-04-02T17:40:35.201Z,27.90
2023-04-02T17:43:10.488Z,28.12
2023-04-02T17:46:06.828Z,27.86
2023-04-02T17:48:44.021Z,28.00
2023-04-02T17:51:33.563Z,27.96
2023-04-02T17:54:17.424Z,27.98
2023-04-02T17:57:09.373Z,27.89
2023-04-02T17:59:44.731Z,27.97
2023-04-02T18:02:32.573Z,28.04
2023-04-02T18:05:34.909Z,27.98
2023-04-02T18:08:25.708Z,28.13
2023-04-02T18:11:10.341Z,27.98
2023-04-02T18:13:53.589Z,28.09
2023-04-02T18:16:50.488Z,27.99
2023-04-02T18:19:40.320Z,27.89
2023-04-02T18:22:19.062Z,28.13
2023-04-02T18:25:21.510Z,27.99
2023-04-02T18:28:13.060Z,28.09
2023-04-02T18:30:54.369Z,28.18
2023-04-02T18:33:48.223Z,28.08
2023-04-02T18:36:52.602Z,28.29
2023-04-02T18:39:42.158Z,27.98
2023-04-02T18:42:35.892Z,28.21
2023-04-02T18:45:23.637Z,28.25
2023-04-02T18:48:00.787Z,28.00
2023-04-02T18:50:40.489Z,28.28
2023-04-02T18:53:21.955Z,28.26
2023-04-02T18:55:59.939Z,28.17
2023-04-02T18:58:51.421Z,28.20
2023-04-02T19:01:29.959Z,28.21
2023-04-02T19:04:05.176Z,28.21
2023-04-02T19:06:52.531Z,28.32
2023-04-02T19:09:38.121Z,28.25
2023-04-02T19:12:25.819Z,28.23
2023-04-02T19:14:59.621Z,28.20
2023-04-02T19:17:49.725Z,28.22
2023-04-02T19:20:19.331Z,28.27
2023-04-02T19:23:11.636Z,28.26
2023-04-02T19:26:06.128Z,28.17
2023-04-02T19:28:38.835Z,28.42
2023-04-02T19:31:49.152Z,28.18
2023-04-02T19:34:43.830Z,28.33
2023-04-02T19:37:29.084Z,28.41
2023-04-02T19:40:06.056Z,28.31
2023-04-02T19:42:53.993Z,28.36
2023-04-02T19:45:32.837Z,28.24
2023-04-02T19:48:06.062Z,28.46
2023-04-02T19:50:35.800Z,28.29
2023-04-02T19:53:05.533Z,28.47
2023-04-02T19:55:35.473Z,28.39
2023-04-02T19:58:17.644Z,28.32
2023-04-02T20:00:49.046Z,28.36
2023-04-02T20:03:18.871Z,28.22
2023-04-02T20:05:48.731Z,28.26
2023-04-02T20:08:18.433Z,28.18
2023-04-02T20:10:49.076Z,28.34
2023-04-02T20:13:21.981Z,28.33
2023-04-02T20:15:53.265Z,28.35
2023-04-02T20:18:23.036Z,28.31
2023-04-02T20:20:52.809Z,28.34
2023-04-02T20:23:24.991Z,28.46
2023-04-02T20:26:00.956Z,28.39
2023-04-02T20:28:33.226Z,28.27
2023-04-02T20:31:17.735Z,28.42
2023-04-02T20:33:48.110Z,28.47
2023-04-02T20:36:19.028Z,28.53
2023-04-02T20:38:55.889Z,28.70
2023-04-02T20:41:28.953Z,28.52
2023-04-02T20:43:58.990Z,28.52
2023-04-02T20:46:28.788Z,28.49
2023-04-02T20:48:58.639Z,28.49
2023-04-02T20:51:41.458Z,28.56
2023-04-02T20:54:14.293Z,28.66
2023-04-02T20:56:46.972Z,28.59
2023-04-02T20:59:19.853Z,27.79
2023-04-02T21:01:49.677Z,29.24
2023-04-02T21:04:19.596Z,30.33
2023-04-02T21:06:58.292Z,29.99
2023-04-02T21:09:28.599Z,30.21
2023-04-02T21:11:58.233Z,30.45
2023-04-02T21:14:30.671Z,30.52
2023-04-02T21:17:02.940Z,30.26
2023-04-02T21:19:34.367Z,30.52
2023-04-02T21:22:07.711Z,30.75
2023-04-02T21:24:37.412Z,30.85
2023-04-02T21:27:07.281Z,31.08
2023-04-02T21:29:39.960Z,31.20
2023-04-02T21:32:21.287Z,30.94
2023-04-02T21:34:51.898Z,31.01
2023-04-02T21:37:21.519Z,31.02
2023-04-02T21:39:51.288Z,31.08
2023-04-02T21:42:20.904Z,30.97
2023-04-02T21:44:53.258Z,31.16
2023-04-02T21:47:25.722Z,31.11
2023-04-02T21:49:55.359Z,31.00
2023-04-02T21:52:25.114Z,31.14
2023-04-02T21:54:56.912Z,31.11
2023-04-02T21:57:26.663Z,31.08
2023-04-02T21:59:59.407Z,30.88
2023-04-02T22:02:35.214Z,31.12
2023-04-02T22:05:05.068Z,30.99
2023-04-02T22:07:34.736Z,30.97
2023-04-02T22:10:04.426Z,30.96
2023-04-02T22:12:34.086Z,31.11
2023-04-02T22:15:06.897Z,30.85
2023-04-02T22:17:36.544Z,30.72
2023-04-02T22:20:06.612Z,30.83
2023-04-02T22:22:36.360Z,30.67
2023-04-02T22:25:10.021Z,30.89
2023-04-02T22:27:39.653Z,30.71
2023-04-02T22:30:13.780Z,30.53
2023-04-02T22:32:44.633Z,30.71
2023-04-02T22:35:17.323Z,30.90
2023-04-02T22:37:47.289Z,30.77
2023-04-02T22:40:16.990Z,30.72
2023-04-02T22:42:47.999Z,31.02
2023-04-02T22:45:19.893Z,30.82
2023-04-02T22:47:52.837Z,30.60
2023-04-02T22:50:26.187Z,30.77
2023-04-02T22:52:55.936Z,30.57
2023-04-02T22:55:25.549Z,30.62
2023-04-02T22:57:55.157Z,30.58
2023-04-02T23:00:25.717Z,30.54
2023-04-02T23:02:55.477Z,30.41
2023-04-02T23:05:25.323Z,30.45
2023-04-02T23:07:58.153Z,30.19
2023-04-02T23:10:29.127Z,30.00
2023-04-02T23:13:02.812Z,30.05
2023-04-02T23:15:32.601Z,30.39
2023-04-02T23:18:02.472Z,29.93
2023-04-02T23:20:35.449Z,29.61
2023-04-02T23:23:06.526Z,29.78
2023-04-02T23:25:39.716Z,29.61
2023-04-02T23:28:09.711Z,29.69
2023-04-02T23:30:39.340Z,29.90
2023-04-02T23:33:12.716Z,29.66
2023-04-02T23:35:45.459Z,29.71
2023-04-02T23:38:17.717Z,29.41
2023-04-02T23:40:47.494Z,29.52
2023-04-02T23:43:17.253Z,29.55
2023-04-02T23:45:53.288Z,29.65
2023-04-02T23:48:31.890Z,29.60
2023-04-02T23:51:04.526Z,29.58
2023-04-02T23:53:35.479Z,29.55
2023-04-02T23:56:05.233Z,29.72
2023-04-02T23:58:34.956Z,29.54
